createdAt,value
2023-04-16T00:00:43.323Z,95.74
2023-04-16T00:03:10.118Z,95.97
2023-04-16T00:05:36.825Z,95.29
2023-04-16T00:08:03.364Z,95.08
2023-04-16T00:10:30.225Z,95.44
2023-04-16T00:12:56.757Z,95.49
2023-04-16T00:15:23.397Z,95.40
2023-04-16T00:17:49.942Z,95.18
2023-04-16T00:20:16.727Z,94.90
2023-04-16T00:22:43.278Z,95.33
2023-04-16T00:25:09.836Z,95.04
2023-04-16T00:27:36.412Z,95.00
2023-04-16T00:30:03.568Z,94.75
2023-04-16T00:32:30.428Z,94.70
2023-04-16T00:34:57.033Z,95.29
2023-04-16T00:37:23.591Z,94.81
2023-04-16T00:39:51.006Z,95.49
2023-04-16T00:42:17.633Z,95.68
2023-04-16T00:44:44.158Z,96.19
2023-04-16T00:47:11.405Z,95.33
2023-04-16T00:49:38.318Z,96.51
2023-04-16T00:52:04.928Z,97.20
2023-04-16T00:54:31.911Z,97.69
2023-04-16T00:56:59.848Z,97.79
2023-04-16T00:59:27.368Z,98.15
2023-04-16T01:01:54.054Z,98.60
2023-04-16T01:04:21.484Z,98.87
2023-04-16T01:06:48.176Z,98.94
2023-04-16T01:09:14.769Z,99.20
2023-04-16T01:11:41.352Z,99.22
2023-04-16T01:14:07.968Z,99.60
2023-04-16T01:16:34.580Z,99.04
2023-04-16T01:19:01.184Z,99.15
2023-04-16T01:21:28.009Z,99.27
2023-04-16T01:23:54.575Z,99.58
2023-04-16T01:26:21.525Z,98.58
2023-04-16T01:28:48.098Z,98.43
2023-04-16T01:31:14.666Z,98.56
2023-04-16T01:33:41.264Z,97.88
2023-04-16T01:36:07.849Z,98.64
2023-04-16T01:38:34.448Z,98.99
2023-04-16T01:41:01.902Z,98.26
2023-04-16T01:43:28.456Z,97.67
2023-04-16T01:46:12.002Z,98.03
2023-04-16T01:48:38.524Z,98.59
2023-04-16T01:51:05.481Z,98.39
2023-04-16T01:53:32.003Z,97.36
2023-04-16T01:55:58.513Z,96.95
2023-04-16T01:58:25.022Z,96.48
2023-04-16T02:00:51.629Z,97.20
2023-04-16T02:03:18.761Z,97.17
2023-04-16T02:05:45.350Z,98.34
2023-04-16T02:08:11.873Z,98.35
2023-04-16T02:10:38.424Z,98.45
2023-04-16T02:13:05.070Z,98.79
2023-04-16T02:15:31.624Z,98.26
2023-04-16T02:17:58.221Z,97.79
2023-04-16T02:20:24.846Z,97.69
2023-04-16T02:22:51.354Z,97.85
2023-04-16T02:25:17.996Z,97.07
2023-04-16T02:27:44.520Z,97.66
2023-04-16T02:30:11.566Z,97.50
2023-04-16T02:32:38.159Z,98.90
2023-04-16T02:35:05.077Z,98.88
2023-04-16T02:37:31.648Z,98.67
2023-04-16T02:39:58.160Z,98.00
2023-04-16T02:42:24.778Z,98.15
2023-04-16T02:44:51.286Z,98.42
2023-04-16T02:47:17.810Z,98.85
2023-04-16T02:49:44.352Z,99.11
2023-04-16T02:52:10.877Z,98.96
2023-04-16T02:54:37.387Z,98.86
2023-04-16T02:57:03.893Z,98.67
2023-04-16T02:59:30.529Z,98.95
2023-04-16T03:01:57.142Z,98.56
2023-04-16T03:04:23.749Z,98.20
2023-04-16T03:06:50.477Z,98.52
2023-04-16T03:09:17.245Z,98.97
2023-04-16T03:11:43.768Z,98.78
2023-04-16T03:14:10.487Z,99.06
2023-04-16T03:16:37.026Z,98.92
2023-04-16T03:19:03.637Z,98.60
2023-04-16T03:21:30.175Z,98.49
2023-04-16T03:23:57.215Z,98.57
2023-04-16T03:26:23.752Z,98.60
2023-04-16T03:28:50.271Z,99.08
2023-04-16T03:31:16.953Z,99.43
2023-04-16T03:33:43.516Z,99.58
2023-04-16T03:36:10.136Z,99.65
2023-04-16T03:38:36.706Z,99.93
2023-04-16T03:41:03.295Z,99.13
2023-04-16T03:43:29.826Z,99.43
2023-04-16T03:45:56.609Z,98.96
2023-04-16T03:48:23.267Z,98.98
2023-04-16T03:50:49.772Z,98.91
2023-04-16T03:53:16.332Z,98.41
2023-04-16T03:55:43.128Z,98.94
2023-04-16T03:58:09.909Z,99.01
2023-04-16T04:00:36.482Z,98.63
2023-04-16T04:03:03.382Z,97.93
2023-04-16T04:05:30.078Z,97.79
2023-04-16T04:07:56.648Z,97.94
2023-04-16T04:10:23.201Z,97.82
2023-04-16T04:12:49.797Z,97.53
2023-04-16T04:15:16.459Z,97.82
2023-04-16T04:17:43.104Z,98.08
2023-04-16T04:20:10.414Z,98.61
2023-04-16T04:22:36.968Z,98.91
2023-04-16T04:25:03.570Z,99.12
2023-04-16T04:27:30.085Z,99.22
2023-04-16T04:29:56.840Z,99.44
2023-04-16T04:32:23.613Z,99.49
2023-04-16T04:34:50.680Z,99.46
2023-04-16T04:37:17.217Z,98.96
2023-04-16T04:39:43.760Z,99.08
2023-04-16T04:42:10.478Z,99.05
2023-04-16T04:44:37.035Z,98.56
2023-04-16T04:47:03.597Z,98.11
2023-04-16T04:49:30.957Z,97.35
2023-04-16T04:51:57.538Z,98.46
2023-04-16T04:54:24.128Z,98.67
2023-04-16T04:56:52.526Z,98.00
2023-04-16T04:59:23.200Z,98.23
2023-04-16T05:01:50.389Z,98.22
2023-04-16T05:04:17.384Z,97.00
2023-04-16T05:06:44.386Z,96.25
2023-04-16T05:09:11.728Z,95.03
2023-04-16T05:11:39.302Z,95.56
2023-04-16T05:14:05.872Z,95.40
2023-04-16T05:16:32.439Z,95.59
2023-04-16T05:18:59.051Z,94.27
2023-04-16T05:21:26.439Z,92.79
2023-04-16T05:23:53.120Z,93.62
2023-04-16T05:26:19.788Z,93.13
2023-04-16T05:28:46.457Z,93.37
2023-04-16T05:31:13.097Z,93.84
2023-04-16T05:33:39.692Z,94.01
2023-04-16T05:36:06.519Z,94.22
2023-04-16T05:38:33.075Z,93.81
2023-04-16T05:40:59.643Z,94.60
2023-04-16T05:43:26.375Z,94.64
2023-04-16T05:45:52.876Z,94.43
2023-04-16T05:48:20.247Z,94.90
2023-04-16T05:50:46.806Z,94.96
2023-04-16T05:53:14.254Z,94.12
2023-04-16T05:55:40.897Z,94.56
2023-04-16T05:58:07.441Z,94.28
2023-04-16T06:00:33.985Z,93.30
2023-04-16T06:03:01.005Z,93.77
2023-04-16T06:05:28.262Z,93.75
2023-04-16T06:07:55.966Z,93.32
2023-04-16T06:10:22.718Z,93.29
2023-04-16T06:12:49.371Z,92.95
2023-04-16T06:15:16.020Z,91.37
2023-04-16T06:17:42.576Z,91.90
2023-04-16T06:20:09.708Z,92.46
2023-04-16T06:22:36.355Z,91.99
2023-04-16T06:25:02.940Z,90.95
2023-04-16T06:27:29.505Z,91.18
2023-04-16T06:29:57.374Z,90.91
2023-04-16T06:32:24.304Z,89.67
2023-04-16T06:34:51.246Z,88.19
2023-04-16T06:37:17.798Z,87.75
2023-04-16T06:39:44.354Z,88.29
2023-04-16T06:42:10.950Z,86.08
2023-04-16T06:44:37.484Z,86.09
2023-04-16T06:47:04.130Z,85.46
2023-04-16T06:49:30.916Z,85.57
2023-04-16T06:51:57.749Z,85.80
2023-04-16T06:54:24.275Z,83.87
2023-04-16T06:56:50.782Z,83.78
2023-04-16T06:59:17.330Z,82.45
2023-04-16T07:01:43.949Z,84.97
2023-04-16T07:04:11.123Z,84.43
2023-04-16T07:06:37.677Z,83.01
2023-04-16T07:09:04.293Z,81.97
2023-04-16T07:11:31.266Z,82.83
2023-04-16T07:13:59.005Z,82.05
2023-04-16T07:16:25.679Z,83.18
2023-04-16T07:18:52.318Z,83.54
2023-04-16T07:21:18.965Z,84.10
2023-04-16T07:23:45.541Z,82.82
2023-04-16T07:26:12.111Z,81.02
2023-04-16T07:28:38.624Z,81.79
2023-04-16T07:31:05.336Z,80.74
2023-04-16T07:33:31.843Z,82.87
2023-04-16T07:35:58.376Z,81.60
2023-04-16T07:38:24.925Z,81.82
2023-04-16T07:40:51.498Z,81.72
2023-04-16T07:43:18.060Z,81.52
2023-04-16T07:45:44.688Z,80.99
2023-04-16T07:48:11.296Z,78.89
2023-04-16T07:50:37.876Z,77.08
2023-04-16T07:53:05.903Z,76.53
2023-04-16T07:55:32.449Z,74.57
2023-04-16T07:57:59.128Z,73.23
2023-04-16T08:00:26.402Z,70.49
2023-04-16T08:02:53.199Z,74.83
2023-04-16T08:05:19.876Z,74.51
2023-04-16T08:07:46.988Z,74.14
2023-04-16T08:10:13.518Z,71.51
2023-04-16T08:12:40.724Z,71.41
2023-04-16T08:15:08.064Z,73.45
2023-04-16T08:17:34.954Z,70.22
2023-04-16T08:20:01.883Z,71.52
2023-04-16T08:22:28.442Z,70.36
2023-04-16T08:24:57.052Z,67.80
2023-04-16T08:27:23.590Z,70.65
2023-04-16T08:29:50.131Z,72.90
2023-04-16T08:32:16.677Z,72.68
2023-04-16T08:34:43.344Z,68.61
2023-04-16T08:37:10.155Z,70.93
2023-04-16T08:39:39.406Z,68.40
2023-04-16T08:42:06.402Z,67.61
2023-04-16T08:44:37.494Z,69.38
2023-04-16T08:47:08.490Z,68.09
2023-04-16T08:49:36.763Z,66.36
2023-04-16T08:52:06.613Z,66.80
2023-04-16T08:54:40.293Z,66.99
2023-04-16T08:57:10.190Z,68.22
2023-04-16T08:59:38.202Z,68.36
2023-04-16T09:02:06.467Z,69.28
2023-04-16T09:04:34.127Z,68.26
2023-04-16T09:07:05.338Z,69.24
2023-04-16T09:09:34.601Z,71.97
2023-04-16T09:12:01.340Z,70.22
2023-04-16T09:14:27.847Z,69.23
2023-04-16T09:16:55.691Z,69.08
2023-04-16T09:19:23.406Z,69.28
2023-04-16T09:21:50.046Z,68.21
2023-04-16T09:24:16.844Z,68.53
2023-04-16T09:26:44.130Z,67.29
2023-04-16T09:29:10.889Z,68.48
2023-04-16T09:31:37.588Z,67.53
2023-04-16T09:34:05.533Z,66.73
2023-04-16T09:36:32.824Z,66.25
2023-04-16T09:39:00.411Z,68.38
2023-04-16T09:41:39.453Z,67.41
2023-04-16T09:44:06.033Z,68.65
2023-04-16T09:46:37.562Z,65.28
2023-04-16T09:49:10.965Z,65.48
2023-04-16T09:51:40.751Z,65.75
2023-04-16T09:54:08.132Z,64.79
2023-04-16T09:56:41.417Z,63.28
2023-04-16T09:59:09.743Z,63.13
2023-04-16T10:01:36.807Z,64.55
2023-04-16T10:04:06.935Z,64.36
2023-04-16T10:06:33.551Z,63.44
2023-04-16T10:09:00.187Z,64.53
2023-04-16T10:11:27.228Z,64.37
2023-04-16T10:13:53.755Z,64.48
2023-04-16T10:16:22.195Z,62.01
2023-04-16T10:18:48.786Z,60.64
2023-04-16T10:21:16.370Z,59.25
2023-04-16T10:23:44.168Z,61.37
2023-04-16T10:26:11.169Z,59.96
2023-04-16T10:28:37.802Z,60.10
2023-04-16T10:31:07.526Z,61.38
2023-04-16T10:33:38.277Z,58.99
2023-04-16T10:36:15.493Z,59.70
2023-04-16T10:38:46.667Z,60.36
2023-04-16T10:41:13.314Z,59.10
2023-04-16T10:43:43.431Z,57.68
2023-04-16T10:46:22.449Z,60.12
2023-04-16T10:48:51.073Z,58.00
2023-04-16T10:51:37.961Z,60.14
2023-04-16T10:54:26.669Z,60.05
2023-04-16T10:56:56.318Z,60.38
2023-04-16T10:59:24.073Z,59.91
2023-04-16T11:01:53.004Z,59.54
2023-04-16T11:04:19.638Z,59.60
2023-04-16T11:07:10.723Z,57.76
2023-04-16T11:10:06.771Z,56.62
2023-04-16T11:12:34.403Z,59.14
2023-04-16T11:15:12.391Z,56.68
2023-04-16T11:17:43.751Z,58.00
2023-04-16T11:20:18.008Z,56.64
2023-04-16T11:22:48.217Z,57.51
2023-04-16T11:25:23.238Z,56.16
2023-04-16T11:27:51.111Z,58.90
2023-04-16T11:30:18.821Z,57.69
2023-04-16T11:32:46.038Z,54.12
2023-04-16T11:35:18.046Z,53.74
2023-04-16T11:37:45.839Z,53.07
2023-04-16T11:40:13.035Z,54.28
2023-04-16T11:42:41.118Z,55.74
2023-04-16T11:45:09.373Z,51.88
2023-04-16T11:48:02.296Z,53.62
2023-04-16T11:50:29.190Z,53.39
2023-04-16T11:52:57.826Z,53.16
2023-04-16T11:55:24.670Z,52.88
2023-04-16T11:57:51.731Z,52.73
2023-04-16T12:00:19.327Z,53.77
2023-04-16T12:02:53.686Z,52.81
2023-04-16T12:05:37.775Z,49.83
2023-04-16T12:08:07.040Z,50.66
2023-04-16T12:10:52.594Z,52.31
2023-04-16T12:13:19.715Z,53.80
2023-04-16T12:15:50.827Z,52.17
2023-04-16T12:18:18.822Z,54.86
2023-04-16T12:20:46.664Z,51.26
2023-04-16T12:23:24.223Z,52.56
2023-04-16T12:25:52.155Z,54.49
2023-04-16T12:28:33.705Z,50.37
2023-04-16T12:31:01.542Z,48.97
2023-04-16T12:33:28.464Z,48.58
2023-04-16T12:35:55.208Z,49.28
2023-04-16T12:38:23.686Z,49.09
2023-04-16T12:40:51.123Z,52.11
2023-04-16T12:43:17.941Z,47.54
2023-04-16T12:45:44.639Z,52.71
2023-04-16T12:48:11.554Z,51.95
2023-04-16T12:50:39.671Z,52.26
2023-04-16T12:53:06.396Z,52.66
2023-04-16T12:55:32.973Z,51.37
2023-04-16T12:57:59.519Z,51.00
2023-04-16T13:00:26.297Z,47.79
2023-04-16T13:02:53.007Z,49.00
2023-04-16T13:05:19.747Z,47.93
2023-04-16T13:07:46.413Z,49.11
2023-04-16T13:10:13.494Z,49.81
2023-04-16T13:12:40.325Z,50.44
2023-04-16T13:15:07.509Z,49.53
2023-04-16T13:17:34.033Z,50.04
2023-04-16T13:20:00.675Z,50.52
2023-04-16T13:22:27.232Z,49.63
2023-04-16T13:24:53.855Z,49.10
2023-04-16T13:27:20.413Z,49.53
2023-04-16T13:29:47.159Z,48.72
2023-04-16T13:32:14.741Z,51.02
2023-04-16T13:34:41.352Z,50.54
2023-04-16T13:37:07.956Z,49.35
2023-04-16T13:39:34.671Z,50.32
2023-04-16T13:42:01.826Z,49.83
2023-04-16T13:44:28.376Z,52.00
2023-04-16T13:46:54.968Z,52.54
2023-04-16T13:49:22.651Z,54.00
2023-04-16T13:51:49.492Z,56.38
2023-04-16T13:54:16.074Z,57.83
2023-04-16T13:56:42.691Z,57.69
2023-04-16T13:59:09.461Z,57.24
2023-04-16T14:01:36.262Z,57.54
2023-04-16T14:04:06.435Z,56.70
2023-04-16T14:06:34.463Z,57.08
2023-04-16T14:09:01.287Z,58.38
2023-04-16T14:11:28.089Z,58.42
2023-04-16T14:13:55.122Z,59.64
2023-04-16T14:16:21.747Z,58.48
2023-04-16T14:18:48.332Z,58.27
2023-04-16T14:21:17.194Z,56.96
2023-04-16T14:23:43.724Z,56.02
2023-04-16T14:26:10.296Z,57.28
2023-04-16T14:28:37.177Z,58.07
2023-04-16T14:31:03.766Z,56.71
2023-04-16T14:33:31.043Z,58.34
2023-04-16T14:35:58.179Z,58.42
2023-04-16T14:38:25.666Z,57.16
2023-04-16T14:40:52.233Z,57.64
2023-04-16T14:43:18.787Z,59.52
2023-04-16T14:45:46.075Z,61.40
2023-04-16T14:48:12.736Z,62.55
2023-04-16T14:50:43.526Z,62.06
2023-04-16T14:53:11.962Z,62.35
2023-04-16T14:55:38.660Z,63.25
2023-04-16T14:58:05.550Z,64.86
2023-04-16T15:00:34.454Z,64.03
2023-04-16T15:03:01.293Z,64.90
2023-04-16T15:05:27.936Z,64.26
2023-04-16T15:07:55.185Z,64.84
2023-04-16T15:10:21.753Z,63.19
2023-04-16T15:12:48.241Z,64.23
2023-04-16T15:15:14.868Z,60.78
2023-04-16T15:17:43.190Z,60.93
2023-04-16T15:20:10.509Z,61.52
2023-04-16T15:22:37.116Z,62.42
2023-04-16T15:25:04.702Z,62.29
2023-04-16T15:27:31.772Z,60.57
2023-04-16T15:29:58.344Z,62.18
2023-04-16T15:32:25.130Z,64.03
2023-04-16T15:34:51.805Z,64.20
2023-04-16T15:37:18.343Z,65.05
2023-04-16T15:39:44.916Z,66.14
2023-04-16T15:42:11.852Z,65.53
2023-04-16T15:44:38.580Z,64.73
2023-04-16T15:47:06.468Z,65.47
2023-04-16T15:49:33.028Z,66.59
2023-04-16T15:51:59.624Z,67.01
2023-04-16T15:54:26.240Z,67.30
2023-04-16T15:56:52.813Z,68.07
2023-04-16T15:59:19.397Z,69.35
2023-04-16T16:01:45.977Z,70.75
2023-04-16T16:04:12.634Z,71.00
2023-04-16T16:06:39.344Z,70.03
2023-04-16T16:09:06.257Z,71.32
2023-04-16T16:11:32.899Z,72.55
2023-04-16T16:14:02.768Z,73.17
2023-04-16T16:16:29.342Z,72.27
2023-04-16T16:18:56.005Z,72.66
2023-04-16T16:21:22.725Z,73.03
2023-04-16T16:23:49.446Z,74.22
2023-04-16T16:26:20.620Z,74.84
2023-04-16T16:28:48.004Z,74.61
2023-04-16T16:31:14.596Z,74.65
2023-04-16T16:33:41.184Z,74.49
2023-04-16T16:36:11.616Z,74.90
2023-04-16T16:38:40.039Z,75.34
2023-04-16T16:41:07.235Z,75.58
2023-04-16T16:43:36.516Z,77.17
2023-04-16T16:46:02.943Z,77.37
2023-04-16T16:48:29.472Z,78.11
2023-04-16T16:50:56.140Z,78.15
2023-04-16T16:53:22.681Z,78.20
2023-04-16T16:55:49.209Z,78.15
2023-04-16T16:58:15.887Z,78.19
2023-04-16T17:00:42.451Z,78.22
2023-04-16T17:03:09.378Z,77.54
2023-04-16T17:05:36.641Z,78.50
2023-04-16T17:08:03.264Z,78.01
2023-04-16T17:10:29.887Z,78.58
2023-04-16T17:12:56.455Z,78.96
2023-04-16T17:15:23.135Z,79.16
2023-04-16T17:17:49.798Z,79.79
2023-04-16T17:20:16.481Z,79.62
2023-04-16T17:22:43.011Z,80.14
2023-04-16T17:25:10.184Z,80.58
2023-04-16T17:27:36.813Z,80.81
2023-04-16T17:30:05.421Z,81.04
2023-04-16T17:32:32.704Z,81.00
2023-04-16T17:35:00.734Z,80.82
2023-04-16T17:37:27.646Z,81.15
2023-04-16T17:39:54.198Z,82.03
2023-04-16T17:42:20.720Z,82.84
2023-04-16T17:44:47.627Z,83.55
2023-04-16T17:47:14.239Z,84.14
2023-04-16T17:49:40.799Z,84.97
2023-04-16T17:52:07.381Z,85.16
2023-04-16T17:54:33.891Z,85.02
2023-04-16T17:57:00.602Z,85.33
2023-04-16T17:59:27.444Z,85.31
2023-04-16T18:01:54.718Z,85.99
2023-04-16T18:04:21.581Z,86.85
2023-04-16T18:06:48.503Z,87.30
2023-04-16T18:09:15.501Z,87.72
2023-04-16T18:11:42.141Z,87.69
2023-04-16T18:14:10.014Z,87.86
2023-04-16T18:16:36.818Z,88.47
2023-04-16T18:19:03.376Z,89.07
2023-04-16T18:21:30.458Z,88.75
2023-04-16T18:23:57.624Z,88.95
2023-04-16T18:26:25.319Z,89.00
2023-04-16T18:28:52.162Z,89.43
2023-04-16T18:31:21.203Z,89.16
2023-04-16T18:33:56.622Z,88.55
2023-04-16T18:36:26.107Z,89.54
2023-04-16T18:39:01.799Z,90.79
2023-04-16T18:41:30.516Z,89.99
2023-04-16T18:43:57.362Z,91.15
2023-04-16T18:46:23.967Z,90.90
2023-04-16T18:48:50.620Z,90.66
2023-04-16T18:51:17.167Z,91.04
2023-04-16T18:53:45.518Z,91.58
2023-04-16T18:56:12.369Z,91.79
2023-04-16T18:58:38.987Z,91.65
2023-04-16T19:01:10.998Z,91.23
2023-04-16T19:03:38.050Z,92.04
2023-04-16T19:06:04.866Z,92.79
2023-04-16T19:08:31.442Z,91.56
2023-04-16T19:10:58.034Z,92.80
2023-04-16T19:13:24.812Z,92.99
2023-04-16T19:15:51.405Z,92.23
2023-04-16T19:18:18.070Z,92.04
2023-04-16T19:20:44.620Z,92.64
2023-04-16T19:23:11.568Z,93.89
2023-04-16T19:25:39.512Z,94.31
2023-04-16T19:28:06.061Z,93.97
2023-04-16T19:30:32.793Z,94.63
2023-04-16T19:32:59.364Z,95.47
2023-04-16T19:35:26.016Z,95.73
2023-04-16T19:37:52.732Z,96.06
2023-04-16T19:40:19.342Z,95.28
2023-04-16T19:42:45.829Z,96.43
2023-04-16T19:45:12.486Z,95.82
2023-04-16T19:47:39.112Z,96.13
2023-04-16T19:50:06.490Z,96.27
2023-04-16T19:52:38.693Z,96.00
2023-04-16T19:55:06.549Z,96.17
2023-04-16T19:57:33.280Z,95.90
2023-04-16T20:00:00.316Z,96.04
2023-04-16T20:02:27.172Z,96.70
2023-04-16T20:04:53.842Z,95.70
2023-04-16T20:07:20.585Z,96.13
2023-04-16T20:09:47.244Z,96.65
2023-04-16T20:12:14.407Z,95.13
2023-04-16T20:14:41.878Z,94.87
2023-04-16T20:17:10.097Z,95.20
2023-04-16T20:19:40.515Z,96.05
2023-04-16T20:22:07.068Z,96.55
2023-04-16T20:24:34.273Z,97.22
2023-04-16T20:27:01.771Z,96.33
2023-04-16T20:29:28.370Z,96.02
2023-04-16T20:31:54.933Z,95.59
2023-04-16T20:34:21.511Z,95.69
2023-04-16T20:36:48.156Z,96.27
2023-04-16T20:39:20.427Z,96.39
2023-04-16T20:41:57.025Z,96.20
2023-04-16T20:44:26.198Z,96.26
2023-04-16T20:46:54.885Z,95.23
2023-04-16T20:49:21.603Z,95.48
2023-04-16T20:51:48.218Z,95.48
2023-04-16T20:54:14.757Z,95.06
2023-04-16T20:56:41.579Z,94.63
2023-04-16T20:59:08.108Z,95.77
2023-04-16T21:01:35.568Z,94.97
2023-04-16T21:04:02.524Z,95.18
2023-04-16T21:06:32.741Z,95.04
2023-04-16T21:08:59.323Z,95.34
2023-04-16T21:11:26.240Z,94.83
2023-04-16T21:13:52.754Z,95.33
2023-04-16T21:16:19.410Z,95.71
2023-04-16T21:18:46.157Z,96.55
2023-04-16T21:21:12.676Z,96.81
2023-04-16T21:23:39.175Z,96.31
2023-04-16T21:26:05.733Z,95.68
2023-04-16T21:28:32.427Z,95.08
2023-04-16T21:30:59.076Z,93.58
2023-04-16T21:33:25.645Z,94.02
2023-04-16T21:35:52.968Z,94.22
2023-04-16T21:38:20.255Z,94.47
2023-04-16T21:40:50.598Z,94.35
2023-04-16T21:43:17.859Z,93.63
2023-04-16T21:45:44.404Z,94.34
2023-04-16T21:48:10.991Z,94.58
2023-04-16T21:50:37.687Z,95.19
2023-04-16T21:53:06.274Z,95.81
2023-04-16T21:55:34.655Z,94.84
2023-04-16T21:58:01.730Z,94.77
2023-04-16T22:00:28.470Z,95.89
2023-04-16T22:02:56.102Z,96.30
2023-04-16T22:05:25.760Z,94.98
2023-04-16T22:07:53.064Z,94.53
2023-04-16T22:10:19.681Z,93.63
2023-04-16T22:12:46.584Z,93.66
2023-04-16T22:15:13.992Z,93.58
2023-04-16T22:17:40.791Z,94.42
2023-04-16T22:20:13.086Z,94.76
2023-04-16T22:22:40.950Z,93.80
2023-04-16T22:25:08.106Z,93.62
2023-04-16T22:27:35.006Z,93.03
2023-04-16T22:30:01.877Z,93.96
2023-04-16T22:32:30.257Z,92.97
2023-04-16T22:34:56.939Z,92.70
2023-04-16T22:37:23.518Z,93.28
2023-04-16T22:39:50.236Z,93.37
2023-04-16T22:42:16.788Z,93.66
2023-04-16T22:44:43.324Z,93.71
2023-04-16T22:47:09.857Z,94.01
2023-04-16T22:49:36.414Z,94.21
2023-04-16T22:52:03.314Z,95.21
2023-04-16T22:54:32.957Z,95.37
2023-04-16T22:57:00.993Z,95.58
2023-04-16T22:59:27.529Z,96.71
2023-04-16T23:01:54.130Z,94.91
2023-04-16T23:04:20.952Z,93.25
2023-04-16T23:06:47.536Z,93.77
2023-04-16T23:09:14.388Z,94.06
2023-04-16T23:11:41.022Z,94.31
2023-04-16T23:14:08.340Z,93.14
2023-04-16T23:16:34.990Z,93.13
2023-04-16T23:19:01.611Z,93.52
2023-04-16T23:21:28.170Z,93.45
2023-04-16T23:23:54.967Z,92.57
2023-04-16T23:26:21.702Z,93.31
2023-04-16T23:28:48.283Z,93.65
2023-04-16T23:31:15.973Z,93.54
2023-04-16T23:33:42.494Z,93.70
2023-04-16T23:36:09.433Z,94.65
2023-04-16T23:38:35.957Z,94.35
2023-04-16T23:41:02.457Z,94.09
2023-04-16T23:43:28.960Z,94.20
2023-04-16T23:45:55.859Z,94.36
2023-04-16T23:48:22.487Z,94.29
2023-04-16T23:50:49.004Z,93.91
2023-04-16T23:53:15.650Z,94.28
2023-04-16T23:55:42.175Z,94.29
2023-04-16T23:58:08.696Z,94.53
